Ajena Airstrip

GH-0002 · Eastern, Ghana

METAR anciennes GH-0002 · Ajena Airstrip

Tu vois ci-dessous les METAR des derniers jours. Sélectionne une année pour parcourir les METAR plus anciens, à partir de l'année 2007.

18 mai 2024

Temps Code Temps Temp. Vue Base cloud Vent METAR/SPECI
19:00
V
28 °C 10 km+ - 190° 190° 5 kt METAR DGAA 181900Z 19005KT CAVOK 28/25 Q1011 NOSIG
18:00
V
29 °C 10 km+ - 200° 200° 8 kt METAR DGAA 181800Z 20008KT 9999 FEW017 29/24 Q1010 NOSIG
17:00
V
29 °C 10 km+ - 180° 180° 10 kt METAR DGAA 181700Z 18010KT 9999 SCT017 29/25 Q1010 NOSIG
16:00
V
29 °C 10 km+ - 180° 180° 11 kt METAR DGAA 181600Z 18011KT 9999 SCT018 29/26 Q1010 NOSIG
15:00
V
30 °C 10 km+ - 180° 180° 10 kt METAR DGAA 181500Z 18010KT 9999 FEW032 30/26 Q1010 NOSIG
14:00
V
32 °C 10 km+ - 290° 290° 9 kt METAR DGAA 181400Z 29009KT 250V310 9999 FEW031 32/25 Q1009 NOSIG
13:00
V
32 °C 10 km+ - 290° 290° 7 kt METAR DGAA 181300Z 29007KT 250V310 9999 FEW017 32/25 Q1009 NOSIG
12:00
V
30 °C 10 km+ - Var Var 3 kt METAR DGAA 181200Z VRB03KT 9999 FEW017 FEW030CB 30/25 Q1011 NOSIG
09:00
V
28 °C 10 km+ - 110° 110° 5 kt METAR DGAA 180900Z 11005KT 9999 FEW030CB 28/26 Q1014 NOSIG
08:00
V
27 °C 10 km+ - 110° 110° 3 kt METAR DGAA 180800Z 11003KT 070V130 CAVOK 27/25 Q1013 NOSIG
07:00
V
27 °C 10 km+ - 290° 290° 6 kt METAR DGAA 180700Z 29006KT CAVOK 27/25 Q1011 NOSIG
06:00
V
27 °C 10 km+ - 290° 290° 5 kt METAR DGAA 180600Z 29005KT CAVOK 27/25 Q1011 NOSIG
05:00
V
27 °C 10 km+ - 270° 270° 5 kt METAR DGAA 180500Z 27005KT CAVOK 27/25 Q1010 NOSIG
04:00
V
27 °C 10 km+ - 260° 260° 6 kt METAR DGAA 180400Z 26006KT CAVOK 27/25 Q1010 NOSIG
03:00
V
27 °C 10 km+ - 290° 290° 5 kt METAR DGAA 180300Z 29005KT CAVOK 27/25 Q1010 NOSIG
02:00
V
27 °C 10 km+ - 270° 270° 5 kt METAR DGAA 180200Z 27005KT CAVOK 27/25 Q1011 NOSIG
01:00
V
27 °C 10 km+ - 250° 250° 7 kt METAR DGAA 180100Z 25007KT CAVOK 27/25 Q1011 NOSIG
00:00
V
28 °C 10 km+ - 260° 260° 7 kt METAR DGAA 180000Z 26007KT CAVOK 28/25 Q1013 NOSIG

17 mai 2024

Temps Code Temps Temp. Vue Base cloud Vent METAR/SPECI
23:00
V
28 °C 10 km+ - 250° 250° 6 kt METAR DGAA 172300Z 25006KT CAVOK 28/25 Q1013 NOSIG
22:00
V
29 °C 10 km+ - 250° 250° 4 kt METAR DGAA 172200Z 25004KT CAVOK 29/25 Q1013 NOSIG
21:00
V
29 °C 10 km+ - 220° 220° 7 kt METAR DGAA 172100Z 22007KT 9999 VCTS FEW017 FEW030CB 29/25 Q1013 NOSIG
20:00
V
28 °C 10 km+ - 200° 200° 5 kt METAR DGAA 172000Z 20005KT 9999 VCTS FEW017 FEW030CB 28/25 Q1012 NOSIG
18:00
V
29 °C 10 km+ - 180° 180° 8 kt METAR DGAA 171800Z 18008KT 9999 FEW015 29/25 Q1011 NOSIG
17:00
V
29 °C 10 km+ - 180° 180° 8 kt METAR DGAA 171700Z 18008KT 9999 FEW016 29/24 Q1011 NOSIG
16:00
V
31 °C 10 km+ - 190° 190° 8 kt METAR DGAA 171600Z 19008KT 9999 FEW016 31/24 Q1010 NOSIG
15:00
V
30 °C 10 km+ - 190° 190° 9 kt METAR DGAA 171500Z 19009KT 170V230 9999 FEW016 30/24 Q1010 NOSIG
14:00
V
30 °C 10 km+ - 180° 180° 7 kt METAR DGAA 171400Z 18007KT 9999 FEW016 30/25 Q1011 NOSIG
13:00
V
30 °C 10 km+ - 170° 170° 6 kt METAR DGAA 171300Z 17006KT 130V200 9999 SCT016 30/25 Q1012 NOSIG
11:00
V
30 °C 10 km+ - 140° 140° 5 kt METAR DGAA 171100Z 14005KT 080V200 9999 FEW026 30/26 Q1013 NOSIG
10:00
V
31 °C 10 km+ - Var Var 2 kt METAR DGAA 171000Z VRB02KT 9999 FEW012 31/25 Q1013 NOSIG
09:00
V
29 °C 10 km+ - Var Var 2 kt METAR DGAA 170900Z VRB02KT 9999 FEW020 29/24 Q1013 NOSIG
08:00
V
28 °C 10 km+ - 360° 360° 3 kt METAR DGAA 170800Z 36003KT 300V060 9999 FEW010 28/25 Q1013 NOSIG
07:00
V
26 °C 10 km+ - 010° 010° 3 kt METAR DGAA 170700Z 01003KT 340V040 9999 FEW019 26/24 Q1013 NOSIG
06:00
V
26 °C 10 km+ - 360° 360° 3 kt METAR DGAA 170600Z 36003KT 9999 FEW010 26/24 Q1012 NOSIG
05:00
V
25 °C 10 km+ - Var Var 1 kt METAR DGAA 170500Z VRB01KT 9999 FEW010 25/24 Q1011 NOSIG
04:00
V
25 °C 10 km+ - 110° 110° 3 kt METAR DGAA 170400Z 11003KT CAVOK 25/25 Q1011 NOSIG
03:00
V
25 °C 10 km+ - 120° 120° 3 kt METAR DGAA 170300Z 12003KT CAVOK 25/25 Q1010 NOSIG
02:00
V
25 °C 10 km+ - 290° 290° 5 kt METAR DGAA 170200Z 29005KT CAVOK 25/24 Q1010 NOSIG
01:00
V
25 °C 10 km+ - 280° 280° 10 kt METAR DGAA 170100Z 28010KT 9999 FEW010 25/24 Q1010 NOSIG
00:00
V
25 °C 10 km+ - 260° 260° 13 kt METAR DGAA 170000Z 26013KT 9999 FEW010 25/24 Q1011 NOSIG

16 mai 2024

Temps Code Temps Temp. Vue Base cloud Vent METAR/SPECI
23:00
I
25 °C 8 km 800 ft 260° 260° 10 kt METAR DGAA 162300Z 26010KT 8000 -RA BKN008 25/25 Q1012 NOSIG
22:00
V
25 °C 8 km - 120° 120° 3 kt METAR DGAA 162200Z 12003KT 8000 -RA SCT008 25/25 Q1014 NOSIG
21:00
I
24 °C 8 km 900 ft 060° 060° 3 kt METAR DGAA 162100Z 06003KT 020V090 8000 -RA BKN009 24/24 Q1014 NOSIG
20:00
V
24 °C 8 km - 010° 010° 5 kt METAR DGAA 162000Z 01005KT 8000 TSRA FEW007 FEW030CB 24/23 Q1013 NOSIG
19:00
I
24 °C 5 km 900 ft 020° 020° 8 kt METAR DGAA 161900Z 02008KT 5000 TSRA FEW007 BKN009 FEW030CB 24/24 Q1013 NOSIG
18:00
L
24 °C 1 km 1.800 ft 040° 040° 9 kt METAR DGAA 161800Z 04009KT 010V070 1000 TSRA FEW007 BKN018 FEW030CB 24/24 Q1013 TEMPO 4000 TSRA
17:00
I
24 °C 5 km 900 ft 030° 030° 17 kt METAR DGAA 161700Z 03017KT 5000 BKN009 OVC017 FEW030CB 24/23 Q1012 NOSIG
16:00
M
29 °C 8 km 1.700 ft 190° 190° 8 kt METAR DGAA 161600Z 19008KT 8000 BKN017 FEW030CB 29/26 Q1011 TEMPO 5000 TSRA
15:00
V
30 °C 10 km+ - 190° 190° 13 kt METAR DGAA 161500Z 19013KT 9999 FEW020 FEW030CB 30/26 Q1010 NOSIG
14:00
V
31 °C 10 km+ - 190° 190° 10 kt METAR DGAA 161400Z 19010KT 150V210 9999 FEW020 FEW030CB 31/26 Q1010 NOSIG
13:00
V
31 °C 10 km+ - 170° 170° 9 kt METAR DGAA 161300Z 17009KT 140V200 9999 FEW020 31/25 Q1011 NOSIG
12:00
V
31 °C 10 km+ 3.300 ft 180° 180° 11 kt METAR DGAA 161200Z 18011KT 9999 SCT025 BKN033 BKN047 31/26 Q1011 NOSIG
11:00
V
32 °C 10 km+ - Var Var 4 kt METAR DGAA 161100Z VRB04KT 9999 FEW032 FEW030CB 32/25 Q1012 NOSIG
10:00
M
31 °C 10 km+ 2.400 ft 220° 220° 6 kt METAR DGAA 161000Z 22006KT 190V260 9999 SCT020 BKN024 FEW030CB 31/25 Q1013 NOSIG
09:00
V
30 °C 10 km+ - 260° 260° 8 kt METAR DGAA 160900Z 26008KT 220V300 9999 FEW018 FEW030CB 30/26 Q1013 NOSIG
08:00
V
29 °C 10 km+ - 280° 280° 5 kt METAR DGAA 160800Z 28005KT 9999 FEW011 FEW030CB 29/26 Q1012 NOSIG
07:00
V
28 °C 10 km+ - 270° 270° 6 kt METAR DGAA 160700Z 27006KT 9999 FEW009 FEW030CB 28/26 Q1011 NOSIG
06:00
V
27 °C 10 km+ - 290° 290° 6 kt METAR DGAA 160600Z 29006KT CAVOK 27/26 Q1010 NOSIG
Signaler les modifications